createdAt,value
2019-01-31T00:07:03.545Z,51.03
2019-01-31T00:09:55.785Z,40.50
2019-01-31T00:13:02.665Z,44.73
2019-01-31T00:19:09.569Z,47.50
2019-01-31T00:22:08.812Z,43.73
2019-01-31T00:25:02.136Z,27.93
2019-01-31T00:34:04.856Z,50.00
2019-01-31T00:39:50.489Z,25.27
2019-01-31T00:56:29.073Z,45.03
2019-01-31T00:59:28.682Z,36.40
2019-01-31T01:09:44.330Z,46.17
2019-01-31T01:12:04.953Z,46.20
2019-01-31T01:18:11.724Z,44.33
2019-01-31T01:21:12.062Z,44.77
2019-01-31T01:24:37.454Z,33.40
2019-01-31T01:30:54.389Z,43.47
2019-01-31T01:37:30.677Z,40.67
2019-01-31T01:41:37.265Z,42.60
2019-01-31T01:43:43.433Z,43.00
2019-01-31T01:46:43.543Z,42.37
2019-01-31T01:49:26.356Z,37.03
2019-01-31T01:52:49.871Z,43.50
2019-01-31T01:55:49.549Z,37.17
2019-01-31T01:59:07.703Z,44.17
2019-01-31T02:02:20.403Z,26.83
2019-01-31T02:05:21.673Z,41.97
2019-01-31T02:08:02.529Z,39.57
2019-01-31T02:31:31.283Z,42.93
2019-01-31T02:52:33.567Z,35.67
2019-01-31T02:55:49.032Z,33.80
2019-01-31T02:59:03.595Z,40.03
2019-01-31T03:05:26.680Z,37.47
2019-01-31T03:08:39.421Z,41.50
2019-01-31T03:27:30.826Z,39.77
2019-01-31T03:31:39.255Z,39.03
2019-01-31T03:33:50.823Z,39.77
2019-01-31T03:37:25.068Z,38.20
2019-01-31T03:43:18.761Z,39.57
2019-01-31T03:46:16.943Z,37.33
2019-01-31T03:49:23.079Z,38.17
2019-01-31T03:52:38.458Z,37.27
2019-01-31T03:58:45.150Z,38.37
2019-01-31T04:07:41.430Z,36.37
2019-01-31T04:13:28.566Z,35.13
2019-01-31T04:26:01.119Z,34.00
2019-01-31T04:43:22.736Z,29.87
2019-01-31T04:46:08.210Z,33.13
2019-01-31T05:17:25.837Z,31.03
2019-01-31T06:54:17.993Z,27.60
2019-01-31T06:56:55.127Z,28.47
2019-01-31T07:11:01.017Z,29.50
2019-01-31T07:27:43.452Z,31.10
2019-01-31T08:21:41.452Z,27.30
2019-01-31T08:27:48.619Z,25.33
2019-01-31T08:31:00.675Z,25.10
2019-01-31T08:37:21.362Z,27.57
2019-01-31T08:40:24.646Z,27.00
2019-01-31T08:46:27.241Z,26.87
2019-01-31T08:49:36.993Z,23.73
2019-01-31T08:52:26.629Z,22.80
2019-01-31T08:58:39.003Z,22.27
2019-01-31T09:07:51.037Z,21.17
2019-01-31T09:10:50.468Z,21.00
2019-01-31T09:16:38.742Z,21.13
2019-01-31T09:35:34.443Z,20.90
2019-01-31T09:41:23.009Z,19.37
2019-01-31T10:01:34.004Z,20.77
2019-01-31T10:07:50.325Z,22.13
2019-01-31T10:15:34.332Z,21.67
2019-01-31T10:17:24.221Z,22.20
2019-01-31T10:20:38.773Z,21.80
2019-01-31T10:58:52.967Z,21.97
2019-01-31T11:32:51.920Z,23.37
2019-01-31T11:36:03.310Z,24.40
2019-01-31T11:45:33.516Z,26.73
2019-01-31T11:49:19.181Z,26.97
2019-01-31T11:59:17.653Z,25.93
2019-01-31T12:02:42.104Z,27.73
2019-01-31T12:20:56.586Z,28.67
2019-01-31T12:23:11.204Z,27.77
2019-01-31T12:30:52.250Z,29.40
2019-01-31T12:40:18.494Z,29.03
2019-01-31T12:46:28.726Z,30.80
2019-01-31T12:56:13.800Z,29.90
2019-01-31T13:01:42.718Z,31.47
2019-01-31T13:04:34.441Z,16.83
2019-01-31T13:16:46.527Z,32.30
2019-01-31T13:20:18.759Z,36.73
2019-01-31T13:29:37.275Z,29.53
2019-01-31T13:36:24.098Z,30.47
2019-01-31T13:48:00.954Z,30.43
2019-01-31T13:50:59.614Z,29.23
2019-01-31T13:53:55.762Z,31.20
2019-01-31T14:00:10.241Z,32.83
2019-01-31T14:18:17.614Z,36.20
2019-01-31T14:27:52.113Z,32.47
2019-01-31T14:30:54.829Z,34.67
2019-01-31T14:40:33.551Z,31.67
2019-01-31T14:46:11.677Z,34.03
2019-01-31T14:54:26.669Z,34.00
2019-01-31T14:57:13.905Z,35.93
2019-01-31T14:59:57.837Z,37.10
2019-01-31T15:05:45.078Z,40.10
2019-01-31T15:08:31.173Z,32.13
2019-01-31T15:17:12.399Z,36.00
2019-01-31T15:20:03.686Z,35.43
2019-01-31T15:26:01.035Z,33.23
2019-01-31T15:28:46.675Z,33.17
2019-01-31T15:46:45.192Z,34.77
2019-01-31T15:49:26.677Z,36.20
2019-01-31T15:52:22.660Z,37.27
2019-01-31T15:55:34.270Z,37.60
2019-01-31T16:37:27.804Z,35.43
2019-01-31T16:40:32.730Z,36.93
2019-01-31T16:43:12.264Z,36.97
2019-01-31T16:52:17.371Z,38.20
2019-01-31T17:28:26.495Z,45.73
2019-01-31T17:31:03.672Z,42.80
2019-01-31T17:33:27.852Z,41.27
2019-01-31T17:35:59.183Z,42.30
2019-01-31T17:38:29.439Z,41.83
2019-01-31T17:40:58.162Z,40.90
2019-01-31T17:43:30.411Z,41.13
2019-01-31T17:46:01.909Z,40.00
2019-01-31T17:48:31.111Z,38.83
2019-01-31T17:51:00.064Z,42.73
2019-01-31T17:53:31.549Z,44.40
2019-01-31T17:56:04.708Z,44.27
2019-01-31T17:58:37.466Z,50.67
2019-01-31T18:01:13.008Z,44.33
2019-01-31T18:03:52.157Z,46.40
2019-01-31T18:06:24.787Z,49.33
2019-01-31T18:11:29.862Z,51.73
2019-01-31T18:14:11.064Z,49.70
2019-01-31T18:16:38.024Z,52.07
2019-01-31T18:19:07.762Z,50.70
2019-01-31T18:21:38.479Z,53.70
2019-01-31T18:24:07.332Z,52.03
2019-01-31T18:26:36.738Z,53.17
2019-01-31T18:29:08.410Z,50.80
2019-01-31T18:31:41.958Z,51.90
2019-01-31T18:34:14.071Z,51.97
2019-01-31T18:36:42.878Z,49.57
2019-01-31T18:39:14.198Z,59.30
2019-01-31T18:41:42.949Z,51.47
2019-01-31T18:44:11.574Z,49.80
2019-01-31T18:46:40.134Z,52.97
2019-01-31T18:49:08.932Z,43.80
2019-01-31T18:51:43.988Z,49.17
2019-01-31T18:54:14.102Z,48.87
2019-01-31T18:56:42.944Z,52.80
2019-01-31T18:59:14.656Z,61.63
2019-01-31T19:01:43.669Z,57.33
2019-01-31T19:04:14.136Z,56.77
2019-01-31T19:06:43.029Z,57.13
2019-01-31T19:09:12.114Z,58.87
2019-01-31T19:11:42.108Z,59.17
2019-01-31T19:14:10.894Z,59.30
2019-01-31T19:16:39.738Z,62.00
2019-01-31T19:19:08.768Z,55.93
2019-01-31T19:21:42.007Z,58.23
2019-01-31T19:24:11.359Z,63.00
2019-01-31T19:26:40.083Z,56.30
2019-01-31T19:29:08.795Z,60.73
2019-01-31T19:31:40.228Z,62.67
2019-01-31T19:34:08.222Z,59.80
2019-01-31T19:36:37.084Z,60.97
2019-01-31T19:39:09.788Z,59.30
2019-01-31T19:41:44.795Z,60.43
2019-01-31T19:44:14.118Z,62.00
2019-01-31T19:46:42.987Z,59.57
2019-01-31T19:49:11.929Z,60.93
2019-01-31T19:51:46.843Z,59.83
2019-01-31T19:54:11.667Z,61.47
2019-01-31T19:59:35.602Z,62.07
2019-01-31T20:02:06.265Z,55.70
2019-01-31T20:04:35.001Z,68.03
2019-01-31T20:07:05.161Z,64.03
2019-01-31T20:09:34.057Z,70.87
2019-01-31T20:12:02.815Z,58.37
2019-01-31T20:14:33.083Z,63.67
2019-01-31T20:17:01.935Z,66.43
2019-01-31T20:19:30.863Z,66.07
2019-01-31T20:21:59.520Z,69.17
2019-01-31T20:24:28.184Z,70.83
2019-01-31T20:26:58.509Z,60.23
2019-01-31T20:29:27.180Z,68.23
2019-01-31T20:32:13.884Z,71.03
2019-01-31T20:35:00.806Z,70.70
2019-01-31T20:37:30.915Z,70.60
2019-01-31T20:39:59.637Z,72.23
2019-01-31T20:42:29.271Z,68.50
2019-01-31T20:45:00.324Z,67.37
2019-01-31T20:47:32.909Z,69.83
2019-01-31T20:50:21.850Z,75.57
2019-01-31T20:53:19.895Z,76.63
2019-01-31T20:55:53.423Z,70.47
2019-01-31T21:03:52.313Z,74.87
2019-01-31T21:06:40.308Z,72.77
2019-01-31T21:13:44.557Z,65.60
2019-01-31T21:17:56.304Z,56.47
2019-01-31T21:20:26.779Z,62.97
2019-01-31T21:22:55.929Z,63.10
2019-01-31T21:25:34.122Z,53.90
2019-01-31T21:55:22.923Z,47.03
2019-01-31T22:01:39.723Z,40.50
2019-01-31T22:13:57.945Z,39.97
2019-01-31T22:16:30.193Z,40.43
2019-01-31T22:49:04.140Z,39.93
2019-01-31T22:51:37.477Z,35.40
2019-01-31T22:54:11.911Z,31.63
2019-01-31T22:56:40.757Z,31.23
2019-01-31T22:59:17.217Z,33.47
2019-01-31T23:01:45.501Z,32.73
2019-01-31T23:04:14.261Z,31.20
2019-01-31T23:06:51.519Z,30.60
2019-01-31T23:09:29.934Z,33.10
2019-01-31T23:14:38.055Z,33.23
2019-01-31T23:17:08.501Z,32.73
2019-01-31T23:19:41.005Z,31.33
2019-01-31T23:22:13.290Z,32.13
2019-01-31T23:24:45.083Z,33.40
2019-01-31T23:27:19.181Z,34.23
2019-01-31T23:29:47.818Z,35.00
2019-01-31T23:32:16.659Z,29.27
2019-01-31T23:34:47.057Z,34.73
2019-01-31T23:37:20.699Z,32.37
2019-01-31T23:39:51.477Z,31.00
2019-01-31T23:42:41.860Z,32.60
2019-01-31T23:45:20.142Z,32.60
2019-01-31T23:48:17.684Z,33.63
2019-01-31T23:51:09.600Z,32.83
2019-01-31T23:53:43.731Z,35.73
2019-01-31T23:56:03.593Z,34.00
2019-01-31T23:59:12.145Z,36.70
